Terminal Aerodrome Forecast
Issued by NWS

Home | Current Version | Previous Version | Text Only | Print | Product List | Glossary On
Versions: 1 2 3 4 5 6 7 8 9 10 11 12 13 14 15 16 17 18 19 20 21 22 23 24 25 26 27 28 29 30
000
FTUS43 KDDC 212336
TAFGCK
TAF
KGCK 212336Z 2200/2224 10008KT P6SM -SN BKN040
     FM220400 11007KT P6SM -SN OVC030
     FM221200 11007KT P6SM BKN009
     FM221800 15009KT P6SM BKN010
     FM222300 15011KT P6SM BKN030=

USA.gov is the U.S. government's official web portal to all federal, state and local government web resources and services.